Terminal Aerodrome Forecast
Issued by NWS

Current Version | Previous Version | Graphics & Text | Print | Product List | Glossary On
Versions: 1 2 3 4 5 6 7 8 9 10 11 12 13 14 15 16
000
FTUS41 KRNK 200749 AAA
TAFLWB
TAF AMD
KLWB 200749Z 2008/2106 29008KT P6SM SCT025
     FM201000 28007KT P6SM SKC
     FM201400 26006KT P6SM SKC
     FM202200 VRB03KT P6SM SCT250=

USA.gov is the U.S. government's official web portal to all federal, state and local government web resources and services.